KPSK/PSK METAR and TAF weather

Enter ICAO airport designator
Station Type Date Time Source
KPSK METAR 2021/09/24 05:15 UTC NOAA

KPSK 240515Z AUTO 00000KT 10SM CLR 08/06 A3011 RMK AO2 T00830062


Station Type Date Time Source
KPSK Decoded METAR 2021/09/24 05:15 UTC NOAA

Dublin / New River Valley, VA, United States (KPSK) 37-08N 080-41W
Sep 24, 2021 - 01:15 AM EDT / 2021.09.24 0515 UTC
Wind: Calm:0
Visibility: 10 mile(s):0
Sky conditions: clear
Temperature: 46.9 F (8.3 C)
Dew Point: 43.2 F (6.2 C)
Relative Humidity: 86%
Pressure (altimeter): 30.11 in. Hg (1019 hPa)
ob: KPSK 240515Z AUTO 00000KT 10SM CLR 08/06 A3011 RMK AO2 T00830062
cycle: 5

Station Type Date Time Source
KPSK TAF UTC NOAA

Error!

Example: see airport list